sensor_id;sensor_type;location;lat;lon;timestamp;P1;durP1;ratioP1;P2;durP2;ratioP2
2021;SDS011;1015;49.756;6.994;2023-06-26T00:01:47;6.57;;;5.90;;
2021;SDS011;1015;49.756;6.994;2023-06-26T00:04:14;7.03;;;6.00;;
2021;SDS011;1015;49.756;6.994;2023-06-26T00:06:43;6.17;;;5.50;;
2021;SDS011;1015;49.756;6.994;2023-06-26T00:09:10;6.33;;;5.73;;
2021;SDS011;1015;49.756;6.994;2023-06-26T00:11:38;7.47;;;5.87;;
2021;SDS011;1015;49.756;6.994;2023-06-26T00:14:05;6.23;;;5.63;;
2021;SDS011;1015;49.756;6.994;2023-06-26T00:16:32;6.30;;;5.70;;
2021;SDS011;1015;49.756;6.994;2023-06-26T00:18:59;6.20;;;5.60;;
2021;SDS011;1015;49.756;6.994;2023-06-26T00:21:27;6.43;;;5.83;;
2021;SDS011;1015;49.756;6.994;2023-06-26T00:23:55;6.30;;;5.70;;
2021;SDS011;1015;49.756;6.994;2023-06-26T00:26:23;6.60;;;5.97;;
2021;SDS011;1015;49.756;6.994;2023-06-26T00:28:50;7.50;;;6.80;;
2021;SDS011;1015;49.756;6.994;2023-06-26T00:31:17;8.30;;;6.47;;
2021;SDS011;1015;49.756;6.994;2023-06-26T00:33:44;5.93;;;5.30;;
2021;SDS011;1015;49.756;6.994;2023-06-26T00:36:11;6.70;;;6.07;;
2021;SDS011;1015;49.756;6.994;2023-06-26T00:38:39;6.77;;;5.90;;
2021;SDS011;1015;49.756;6.994;2023-06-26T00:41:08;6.47;;;5.83;;
2021;SDS011;1015;49.756;6.994;2023-06-26T00:43:37;6.63;;;6.03;;
2021;SDS011;1015;49.756;6.994;2023-06-26T00:46:05;6.07;;;5.47;;
2021;SDS011;1015;49.756;6.994;2023-06-26T00:48:35;8.43;;;6.50;;
2021;SDS011;1015;49.756;6.994;2023-06-26T00:51:02;6.60;;;5.90;;
2021;SDS011;1015;49.756;6.994;2023-06-26T00:53:30;6.70;;;6.10;;
2021;SDS011;1015;49.756;6.994;2023-06-26T00:55:57;7.20;;;6.50;;
2021;SDS011;1015;49.756;6.994;2023-06-26T00:58:26;5.90;;;5.30;;
2021;SDS011;1015;49.756;6.994;2023-06-26T01:00:53;6.83;;;6.23;;
2021;SDS011;1015;49.756;6.994;2023-06-26T01:03:21;6.70;;;5.90;;
2021;SDS011;1015;49.756;6.994;2023-06-26T01:05:49;6.43;;;5.80;;
2021;SDS011;1015;49.756;6.994;2023-06-26T01:08:17;6.23;;;5.63;;
2021;SDS011;1015;49.756;6.994;2023-06-26T01:10:45;6.23;;;5.63;;
2021;SDS011;1015;49.756;6.994;2023-06-26T01:13:12;6.23;;;5.63;;
2021;SDS011;1015;49.756;6.994;2023-06-26T01:15:41;8.27;;;6.57;;
2021;SDS011;1015;49.756;6.994;2023-06-26T01:18:08;6.40;;;5.80;;
2021;SDS011;1015;49.756;6.994;2023-06-26T01:20:36;7.10;;;6.40;;
2021;SDS011;1015;49.756;6.994;2023-06-26T01:23:05;7.40;;;6.40;;
2021;SDS011;1015;49.756;6.994;2023-06-26T01:25:35;6.37;;;5.77;;
2021;SDS011;1015;49.756;6.994;2023-06-26T01:28:06;6.90;;;6.20;;
2021;SDS011;1015;49.756;6.994;2023-06-26T01:30:34;6.33;;;5.83;;
2021;SDS011;1015;49.756;6.994;2023-06-26T01:33:03;8.47;;;6.40;;
2021;SDS011;1015;49.756;6.994;2023-06-26T01:35:30;6.47;;;5.77;;
2021;SDS011;1015;49.756;6.994;2023-06-26T01:38:11;6.87;;;6.20;;
2021;SDS011;1015;49.756;6.994;2023-06-26T01:40:38;7.27;;;6.57;;
2021;SDS011;1015;49.756;6.994;2023-06-26T01:43:07;7.20;;;6.20;;
2021;SDS011;1015;49.756;6.994;2023-06-26T01:45:37;7.00;;;6.30;;
2021;SDS011;1015;49.756;6.994;2023-06-26T01:48:06;7.37;;;6.63;;
2021;SDS011;1015;49.756;6.994;2023-06-26T01:50:33;6.90;;;6.20;;
2021;SDS011;1015;49.756;6.994;2023-06-26T01:53:02;7.20;;;6.50;;
2021;SDS011;1015;49.756;6.994;2023-06-26T01:55:39;7.73;;;6.97;;
2021;SDS011;1015;49.756;6.994;2023-06-26T01:58:08;7.80;;;7.10;;
2021;SDS011;1015;49.756;6.994;2023-06-26T02:00:35;7.33;;;6.57;;
2021;SDS011;1015;49.756;6.994;2023-06-26T02:03:03;7.70;;;6.90;;
2021;SDS011;1015;49.756;6.994;2023-06-26T02:05:31;7.30;;;6.60;;
2021;SDS011;1015;49.756;6.994;2023-06-26T02:07:58;8.30;;;6.70;;
2021;SDS011;1015;49.756;6.994;2023-06-26T02:10:28;7.93;;;7.17;;
2021;SDS011;1015;49.756;6.994;2023-06-26T02:12:55;7.33;;;6.63;;
2021;SDS011;1015;49.756;6.994;2023-06-26T02:15:23;8.00;;;7.20;;
2021;SDS011;1015;49.756;6.994;2023-06-26T02:17:51;8.20;;;7.43;;
2021;SDS011;1015;49.756;6.994;2023-06-26T02:20:18;8.33;;;7.63;;
2021;SDS011;1015;49.756;6.994;2023-06-26T02:22:45;7.37;;;6.60;;
2021;SDS011;1015;49.756;6.994;2023-06-26T02:25:12;7.17;;;6.57;;
2021;SDS011;1015;49.756;6.994;2023-06-26T02:27:39;7.33;;;6.63;;
2021;SDS011;1015;49.756;6.994;2023-06-26T02:30:08;8.33;;;7.53;;
2021;SDS011;1015;49.756;6.994;2023-06-26T02:32:36;7.70;;;6.30;;
2021;SDS011;1015;49.756;6.994;2023-06-26T02:35:04;7.20;;;6.50;;
2021;SDS011;1015;49.756;6.994;2023-06-26T02:37:31;8.23;;;7.03;;
2021;SDS011;1015;49.756;6.994;2023-06-26T02:39:58;7.90;;;7.20;;
2021;SDS011;1015;49.756;6.994;2023-06-26T02:42:26;8.00;;;6.77;;
2021;SDS011;1015;49.756;6.994;2023-06-26T02:44:53;13.83;;;7.77;;
2021;SDS011;1015;49.756;6.994;2023-06-26T02:47:20;6.97;;;6.37;;
2021;SDS011;1015;49.756;6.994;2023-06-26T02:49:49;7.40;;;6.60;;
2021;SDS011;1015;49.756;6.994;2023-06-26T02:52:16;7.37;;;6.60;;
2021;SDS011;1015;49.756;6.994;2023-06-26T02:54:44;8.00;;;7.13;;
2021;SDS011;1015;49.756;6.994;2023-06-26T02:57:11;7.67;;;6.87;;
2021;SDS011;1015;49.756;6.994;2023-06-26T02:59:39;7.67;;;6.93;;
2021;SDS011;1015;49.756;6.994;2023-06-26T03:02:07;8.60;;;7.70;;
2021;SDS011;1015;49.756;6.994;2023-06-26T03:04:34;8.10;;;7.27;;
2021;SDS011;1015;49.756;6.994;2023-06-26T03:07:03;7.87;;;7.17;;
2021;SDS011;1015;49.756;6.994;2023-06-26T03:09:31;8.33;;;7.47;;
2021;SDS011;1015;49.756;6.994;2023-06-26T03:11:58;7.87;;;7.17;;
2021;SDS011;1015;49.756;6.994;2023-06-26T03:14:25;10.20;;;7.50;;
2021;SDS011;1015;49.756;6.994;2023-06-26T03:16:53;7.80;;;7.10;;
2021;SDS011;1015;49.756;6.994;2023-06-26T03:19:23;8.40;;;7.60;;
2021;SDS011;1015;49.756;6.994;2023-06-26T03:21:50;7.43;;;6.73;;
2021;SDS011;1015;49.756;6.994;2023-06-26T03:24:18;7.67;;;6.87;;
2021;SDS011;1015;49.756;6.994;2023-06-26T03:26:46;7.70;;;7.00;;
2021;SDS011;1015;49.756;6.994;2023-06-26T03:29:13;7.60;;;6.90;;
2021;SDS011;1015;49.756;6.994;2023-06-26T03:31:41;7.60;;;6.90;;
2021;SDS011;1015;49.756;6.994;2023-06-26T03:34:08;7.87;;;7.13;;
2021;SDS011;1015;49.756;6.994;2023-06-26T03:36:36;7.80;;;7.00;;
2021;SDS011;1015;49.756;6.994;2023-06-26T03:39:03;7.60;;;6.80;;
2021;SDS011;1015;49.756;6.994;2023-06-26T03:41:31;8.20;;;7.40;;
2021;SDS011;1015;49.756;6.994;2023-06-26T03:43:59;7.80;;;7.00;;
2021;SDS011;1015;49.756;6.994;2023-06-26T03:46:27;8.77;;;7.87;;
2021;SDS011;1015;49.756;6.994;2023-06-26T03:48:54;8.70;;;7.90;;
2021;SDS011;1015;49.756;6.994;2023-06-26T03:51:21;8.07;;;7.27;;
2021;SDS011;1015;49.756;6.994;2023-06-26T03:53:48;8.27;;;7.47;;
2021;SDS011;1015;49.756;6.994;2023-06-26T03:56:15;8.43;;;7.60;;
2021;SDS011;1015;49.756;6.994;2023-06-26T03:58:44;7.80;;;7.10;;
2021;SDS011;1015;49.756;6.994;2023-06-26T04:01:11;9.17;;;8.27;;
2021;SDS011;1015;49.756;6.994;2023-06-26T04:03:39;9.93;;;7.90;;
2021;SDS011;1015;49.756;6.994;2023-06-26T04:06:06;9.13;;;7.37;;
2021;SDS011;1015;49.756;6.994;2023-06-26T04:08:34;7.53;;;6.87;;
2021;SDS011;1015;49.756;6.994;2023-06-26T04:11:02;8.23;;;7.40;;
2021;SDS011;1015;49.756;6.994;2023-06-26T04:13:29;7.93;;;7.13;;
2021;SDS011;1015;49.756;6.994;2023-06-26T04:15:57;7.67;;;6.97;;
2021;SDS011;1015;49.756;6.994;2023-06-26T04:18:25;7.90;;;7.10;;
2021;SDS011;1015;49.756;6.994;2023-06-26T04:21:04;7.87;;;7.10;;
2021;SDS011;1015;49.756;6.994;2023-06-26T04:23:32;7.50;;;6.90;;
2021;SDS011;1015;49.756;6.994;2023-06-26T04:26:00;7.60;;;6.90;;
2021;SDS011;1015;49.756;6.994;2023-06-26T04:28:27;7.37;;;6.67;;
2021;SDS011;1015;49.756;6.994;2023-06-26T04:30:54;7.77;;;7.00;;
2021;SDS011;1015;49.756;6.994;2023-06-26T04:33:23;7.27;;;6.63;;
2021;SDS011;1015;49.756;6.994;2023-06-26T04:35:51;7.23;;;6.57;;
2021;SDS011;1015;49.756;6.994;2023-06-26T04:38:18;6.80;;;6.20;;
2021;SDS011;1015;49.756;6.994;2023-06-26T04:40:46;7.73;;;7.03;;
2021;SDS011;1015;49.756;6.994;2023-06-26T04:43:14;6.87;;;6.27;;
2021;SDS011;1015;49.756;6.994;2023-06-26T04:45:41;6.40;;;5.90;;
2021;SDS011;1015;49.756;6.994;2023-06-26T04:48:08;7.60;;;6.30;;
2021;SDS011;1015;49.756;6.994;2023-06-26T04:50:38;6.50;;;5.90;;
2021;SDS011;1015;49.756;6.994;2023-06-26T04:53:05;5.90;;;5.40;;
2021;SDS011;1015;49.756;6.994;2023-06-26T04:55:32;6.53;;;5.70;;
2021;SDS011;1015;49.756;6.994;2023-06-26T04:58:00;6.30;;;5.70;;
2021;SDS011;1015;49.756;6.994;2023-06-26T05:00:27;6.47;;;5.87;;
2021;SDS011;1015;49.756;6.994;2023-06-26T05:02:55;6.20;;;5.60;;
2021;SDS011;1015;49.756;6.994;2023-06-26T05:05:25;6.10;;;5.60;;
2021;SDS011;1015;49.756;6.994;2023-06-26T05:07:54;6.30;;;5.70;;
2021;SDS011;1015;49.756;6.994;2023-06-26T05:10:22;6.20;;;5.70;;
2021;SDS011;1015;49.756;6.994;2023-06-26T05:12:49;6.10;;;5.60;;
2021;SDS011;1015;49.756;6.994;2023-06-26T05:15:16;6.50;;;6.00;;
2021;SDS011;1015;49.756;6.994;2023-06-26T05:17:43;6.57;;;5.97;;
2021;SDS011;1015;49.756;6.994;2023-06-26T05:20:11;6.20;;;5.70;;
2021;SDS011;1015;49.756;6.994;2023-06-26T05:22:38;6.60;;;6.00;;
2021;SDS011;1015;49.756;6.994;2023-06-26T05:25:08;6.00;;;5.50;;
2021;SDS011;1015;49.756;6.994;2023-06-26T05:27:36;6.50;;;6.00;;
2021;SDS011;1015;49.756;6.994;2023-06-26T05:30:04;7.00;;;6.40;;
2021;SDS011;1015;49.756;6.994;2023-06-26T05:32:31;6.40;;;5.90;;
2021;SDS011;1015;49.756;6.994;2023-06-26T05:35:01;6.43;;;5.80;;
2021;SDS011;1015;49.756;6.994;2023-06-26T05:37:29;6.73;;;5.73;;
2021;SDS011;1015;49.756;6.994;2023-06-26T05:39:58;6.17;;;5.67;;
2021;SDS011;1015;49.756;6.994;2023-06-26T05:42:27;6.70;;;6.10;;
2021;SDS011;1015;49.756;6.994;2023-06-26T05:44:55;7.10;;;6.50;;
2021;SDS011;1015;49.756;6.994;2023-06-26T05:47:22;7.83;;;7.23;;
2021;SDS011;1015;49.756;6.994;2023-06-26T05:49:49;6.93;;;6.43;;
2021;SDS011;1015;49.756;6.994;2023-06-26T05:52:17;7.80;;;7.10;;
2021;SDS011;1015;49.756;6.994;2023-06-26T05:54:44;8.00;;;7.30;;
2021;SDS011;1015;49.756;6.994;2023-06-26T05:57:12;7.53;;;6.87;;
2021;SDS011;1015;49.756;6.994;2023-06-26T05:59:42;7.13;;;6.30;;
2021;SDS011;1015;49.756;6.994;2023-06-26T06:02:10;7.50;;;6.80;;
2021;SDS011;1015;49.756;6.994;2023-06-26T06:04:37;7.00;;;6.40;;
2021;SDS011;1015;49.756;6.994;2023-06-26T06:07:04;7.93;;;7.23;;
2021;SDS011;1015;49.756;6.994;2023-06-26T06:09:31;8.17;;;7.33;;
2021;SDS011;1015;49.756;6.994;2023-06-26T06:11:59;8.23;;;7.10;;
2021;SDS011;1015;49.756;6.994;2023-06-26T06:14:26;7.40;;;6.80;;
2021;SDS011;1015;49.756;6.994;2023-06-26T06:16:55;7.17;;;6.57;;
2021;SDS011;1015;49.756;6.994;2023-06-26T06:19:22;6.57;;;5.90;;
2021;SDS011;1015;49.756;6.994;2023-06-26T06:21:50;7.13;;;6.43;;
2021;SDS011;1015;49.756;6.994;2023-06-26T06:24:17;7.37;;;6.67;;
2021;SDS011;1015;49.756;6.994;2023-06-26T06:26:44;7.17;;;6.57;;
2021;SDS011;1015;49.756;6.994;2023-06-26T06:29:11;8.13;;;6.40;;
2021;SDS011;1015;49.756;6.994;2023-06-26T06:31:38;7.27;;;6.50;;
2021;SDS011;1015;49.756;6.994;2023-06-26T06:34:07;6.67;;;6.07;;
2021;SDS011;1015;49.756;6.994;2023-06-26T06:36:34;7.10;;;6.40;;
2021;SDS011;1015;49.756;6.994;2023-06-26T06:39:01;6.60;;;6.00;;
2021;SDS011;1015;49.756;6.994;2023-06-26T06:41:29;6.07;;;5.57;;
2021;SDS011;1015;49.756;6.994;2023-06-26T06:43:56;6.43;;;5.83;;
2021;SDS011;1015;49.756;6.994;2023-06-26T06:46:23;6.10;;;5.50;;
2021;SDS011;1015;49.756;6.994;2023-06-26T06:48:52;6.17;;;5.67;;
2021;SDS011;1015;49.756;6.994;2023-06-26T06:51:20;6.20;;;5.60;;
2021;SDS011;1015;49.756;6.994;2023-06-26T06:53:47;5.40;;;4.90;;
2021;SDS011;1015;49.756;6.994;2023-06-26T06:56:15;5.77;;;5.33;;
2021;SDS011;1015;49.756;6.994;2023-06-26T06:58:42;6.47;;;5.70;;
2021;SDS011;1015;49.756;6.994;2023-06-26T07:01:11;5.37;;;4.87;;
2021;SDS011;1015;49.756;6.994;2023-06-26T07:03:38;5.50;;;4.97;;
2021;SDS011;1015;49.756;6.994;2023-06-26T07:06:06;5.40;;;5.00;;
2021;SDS011;1015;49.756;6.994;2023-06-26T07:08:34;5.67;;;5.17;;
2021;SDS011;1015;49.756;6.994;2023-06-26T07:11:01;5.13;;;4.73;;
2021;SDS011;1015;49.756;6.994;2023-06-26T07:13:29;5.43;;;5.03;;
2021;SDS011;1015;49.756;6.994;2023-06-26T07:15:56;5.47;;;4.47;;
2021;SDS011;1015;49.756;6.994;2023-06-26T07:18:23;5.23;;;4.70;;
2021;SDS011;1015;49.756;6.994;2023-06-26T07:20:50;4.67;;;4.27;;
2021;SDS011;1015;49.756;6.994;2023-06-26T07:23:18;4.37;;;4.00;;
2021;SDS011;1015;49.756;6.994;2023-06-26T07:25:46;4.37;;;3.97;;
2021;SDS011;1015;49.756;6.994;2023-06-26T07:28:13;5.30;;;4.60;;
2021;SDS011;1015;49.756;6.994;2023-06-26T07:30:41;6.30;;;4.50;;
2021;SDS011;1015;49.756;6.994;2023-06-26T07:33:08;5.17;;;4.67;;
2021;SDS011;1015;49.756;6.994;2023-06-26T07:35:35;4.07;;;3.77;;
2021;SDS011;1015;49.756;6.994;2023-06-26T07:38:02;4.10;;;3.80;;
2021;SDS011;1015;49.756;6.994;2023-06-26T07:40:29;4.87;;;4.43;;
2021;SDS011;1015;49.756;6.994;2023-06-26T07:42:58;4.60;;;4.20;;
2021;SDS011;1015;49.756;6.994;2023-06-26T07:45:25;4.07;;;3.67;;
2021;SDS011;1015;49.756;6.994;2023-06-26T07:47:52;4.33;;;3.93;;
2021;SDS011;1015;49.756;6.994;2023-06-26T07:50:19;4.00;;;3.70;;
2021;SDS011;1015;49.756;6.994;2023-06-26T07:52:49;4.30;;;3.57;;
2021;SDS011;1015;49.756;6.994;2023-06-26T07:55:18;5.27;;;3.67;;
2021;SDS011;1015;49.756;6.994;2023-06-26T07:57:45;7.07;;;3.80;;
2021;SDS011;1015;49.756;6.994;2023-06-26T08:00:14;3.60;;;3.30;;
2021;SDS011;1015;49.756;6.994;2023-06-26T08:02:41;3.93;;;3.30;;
2021;SDS011;1015;49.756;6.994;2023-06-26T08:05:09;4.30;;;3.43;;
2021;SDS011;1015;49.756;6.994;2023-06-26T08:07:36;4.47;;;3.53;;
2021;SDS011;1015;49.756;6.994;2023-06-26T08:10:03;3.90;;;3.60;;
2021;SDS011;1015;49.756;6.994;2023-06-26T08:12:30;3.70;;;3.20;;
2021;SDS011;1015;49.756;6.994;2023-06-26T08:14:58;5.43;;;3.40;;
2021;SDS011;1015;49.756;6.994;2023-06-26T08:17:29;3.60;;;3.30;;
2021;SDS011;1015;49.756;6.994;2023-06-26T08:19:56;3.37;;;3.07;;
2021;SDS011;1015;49.756;6.994;2023-06-26T08:22:23;3.57;;;3.27;;
2021;SDS011;1015;49.756;6.994;2023-06-26T08:24:51;3.10;;;2.90;;
2021;SDS011;1015;49.756;6.994;2023-06-26T08:27:18;3.80;;;3.23;;
2021;SDS011;1015;49.756;6.994;2023-06-26T08:29:45;4.20;;;3.23;;
2021;SDS011;1015;49.756;6.994;2023-06-26T08:32:12;3.47;;;3.17;;
2021;SDS011;1015;49.756;6.994;2023-06-26T08:34:41;3.67;;;3.10;;
2021;SDS011;1015;49.756;6.994;2023-06-26T08:37:08;3.10;;;2.80;;
2021;SDS011;1015;49.756;6.994;2023-06-26T08:39:35;3.13;;;2.83;;
2021;SDS011;1015;49.756;6.994;2023-06-26T08:42:02;2.83;;;2.57;;
2021;SDS011;1015;49.756;6.994;2023-06-26T08:44:30;2.93;;;2.73;;
2021;SDS011;1015;49.756;6.994;2023-06-26T08:46:58;2.60;;;2.40;;
2021;SDS011;1015;49.756;6.994;2023-06-26T08:49:28;2.60;;;2.40;;
2021;SDS011;1015;49.756;6.994;2023-06-26T08:51:59;2.60;;;2.40;;
2021;SDS011;1015;49.756;6.994;2023-06-26T08:54:31;2.90;;;2.60;;
2021;SDS011;1015;49.756;6.994;2023-06-26T08:57:00;3.20;;;2.90;;
2021;SDS011;1015;49.756;6.994;2023-06-26T08:59:28;2.53;;;2.33;;
2021;SDS011;1015;49.756;6.994;2023-06-26T09:01:55;3.00;;;2.80;;
2021;SDS011;1015;49.756;6.994;2023-06-26T09:04:23;3.90;;;2.90;;
2021;SDS011;1015;49.756;6.994;2023-06-26T09:06:50;3.27;;;2.97;;
2021;SDS011;1015;49.756;6.994;2023-06-26T09:09:19;3.80;;;2.87;;
2021;SDS011;1015;49.756;6.994;2023-06-26T09:11:46;3.17;;;2.87;;
2021;SDS011;1015;49.756;6.994;2023-06-26T09:14:13;3.50;;;2.97;;
2021;SDS011;1015;49.756;6.994;2023-06-26T09:16:41;3.20;;;2.83;;
2021;SDS011;1015;49.756;6.994;2023-06-26T09:19:09;3.10;;;2.90;;
2021;SDS011;1015;49.756;6.994;2023-06-26T09:21:37;3.70;;;3.40;;
2021;SDS011;1015;49.756;6.994;2023-06-26T09:24:06;3.47;;;3.17;;
2021;SDS011;1015;49.756;6.994;2023-06-26T09:26:35;3.13;;;2.83;;
2021;SDS011;1015;49.756;6.994;2023-06-26T09:29:03;4.00;;;3.07;;
2021;SDS011;1015;49.756;6.994;2023-06-26T09:31:32;6.90;;;2.90;;
2021;SDS011;1015;49.756;6.994;2023-06-26T09:33:59;2.77;;;2.30;;
2021;SDS011;1015;49.756;6.994;2023-06-26T09:36:28;3.10;;;2.67;;
2021;SDS011;1015;49.756;6.994;2023-06-26T09:38:57;2.90;;;2.70;;
2021;SDS011;1015;49.756;6.994;2023-06-26T09:41:25;2.90;;;2.60;;
2021;SDS011;1015;49.756;6.994;2023-06-26T09:43:53;3.10;;;2.87;;
2021;SDS011;1015;49.756;6.994;2023-06-26T09:46:24;3.00;;;2.70;;
2021;SDS011;1015;49.756;6.994;2023-06-26T09:48:57;3.37;;;2.90;;
2021;SDS011;1015;49.756;6.994;2023-06-26T09:51:25;5.73;;;3.33;;
2021;SDS011;1015;49.756;6.994;2023-06-26T09:53:52;3.73;;;2.50;;
2021;SDS011;1015;49.756;6.994;2023-06-26T09:56:20;3.40;;;2.80;;
2021;SDS011;1015;49.756;6.994;2023-06-26T09:58:48;3.13;;;2.80;;
2021;SDS011;1015;49.756;6.994;2023-06-26T10:01:18;3.40;;;3.10;;
2021;SDS011;1015;49.756;6.994;2023-06-26T10:03:46;3.33;;;3.00;;
2021;SDS011;1015;49.756;6.994;2023-06-26T10:06:13;3.67;;;2.90;;
2021;SDS011;1015;49.756;6.994;2023-06-26T10:08:41;3.13;;;2.80;;
2021;SDS011;1015;49.756;6.994;2023-06-26T10:11:11;3.40;;;3.00;;
2021;SDS011;1015;49.756;6.994;2023-06-26T10:13:39;3.27;;;2.97;;
2021;SDS011;1015;49.756;6.994;2023-06-26T10:16:10;3.80;;;3.17;;
2021;SDS011;1015;49.756;6.994;2023-06-26T10:18:39;3.50;;;2.93;;
2021;SDS011;1015;49.756;6.994;2023-06-26T10:21:07;3.63;;;3.20;;
2021;SDS011;1015;49.756;6.994;2023-06-26T10:23:35;4.20;;;3.20;;
2021;SDS011;1015;49.756;6.994;2023-06-26T10:26:03;3.63;;;3.10;;
2021;SDS011;1015;49.756;6.994;2023-06-26T10:28:32;3.00;;;2.70;;
2021;SDS011;1015;49.756;6.994;2023-06-26T10:31:00;4.10;;;3.30;;
2021;SDS011;1015;49.756;6.994;2023-06-26T10:33:28;4.93;;;3.40;;
2021;SDS011;1015;49.756;6.994;2023-06-26T10:38:51;4.40;;;3.27;;
2021;SDS011;1015;49.756;6.994;2023-06-26T10:41:21;3.80;;;2.50;;
2021;SDS011;1015;49.756;6.994;2023-06-26T10:43:50;3.87;;;2.97;;
2021;SDS011;1015;49.756;6.994;2023-06-26T10:46:18;4.63;;;3.00;;
2021;SDS011;1015;49.756;6.994;2023-06-26T10:48:55;3.30;;;2.90;;
2021;SDS011;1015;49.756;6.994;2023-06-26T10:51:23;3.40;;;2.33;;
2021;SDS011;1015;49.756;6.994;2023-06-26T10:53:54;3.67;;;2.53;;
2021;SDS011;1015;49.756;6.994;2023-06-26T10:56:24;3.10;;;2.30;;
2021;SDS011;1015;49.756;6.994;2023-06-26T10:59:14;5.70;;;2.47;;
2021;SDS011;1015;49.756;6.994;2023-06-26T11:01:42;2.80;;;2.53;;
2021;SDS011;1015;49.756;6.994;2023-06-26T11:04:10;3.27;;;2.80;;
2021;SDS011;1015;49.756;6.994;2023-06-26T11:06:39;4.03;;;2.77;;
2021;SDS011;1015;49.756;6.994;2023-06-26T11:09:08;3.30;;;2.33;;
2021;SDS011;1015;49.756;6.994;2023-06-26T11:14:25;3.60;;;2.20;;
2021;SDS011;1015;49.756;6.994;2023-06-26T11:16:53;4.60;;;2.37;;
2021;SDS011;1015;49.756;6.994;2023-06-26T11:19:22;3.63;;;2.07;;
2021;SDS011;1015;49.756;6.994;2023-06-26T11:21:49;3.67;;;2.20;;
2021;SDS011;1015;49.756;6.994;2023-06-26T11:24:18;3.93;;;2.60;;
2021;SDS011;1015;49.756;6.994;2023-06-26T11:26:46;4.60;;;2.50;;
2021;SDS011;1015;49.756;6.994;2023-06-26T11:29:13;4.07;;;2.67;;
2021;SDS011;1015;49.756;6.994;2023-06-26T11:31:41;4.37;;;2.50;;
2021;SDS011;1015;49.756;6.994;2023-06-26T11:34:09;2.90;;;2.07;;
2021;SDS011;1015;49.756;6.994;2023-06-26T11:36:37;4.13;;;2.50;;
2021;SDS011;1015;49.756;6.994;2023-06-26T11:39:06;2.60;;;2.20;;
2021;SDS011;1015;49.756;6.994;2023-06-26T11:41:35;3.40;;;2.27;;
2021;SDS011;1015;49.756;6.994;2023-06-26T11:44:03;2.57;;;2.37;;
2021;SDS011;1015;49.756;6.994;2023-06-26T11:46:31;3.90;;;2.20;;
2021;SDS011;1015;49.756;6.994;2023-06-26T11:48:58;2.70;;;2.30;;
2021;SDS011;1015;49.756;6.994;2023-06-26T11:51:26;2.60;;;2.40;;
2021;SDS011;1015;49.756;6.994;2023-06-26T11:53:54;2.80;;;2.03;;
2021;SDS011;1015;49.756;6.994;2023-06-26T11:56:21;2.40;;;1.70;;
2021;SDS011;1015;49.756;6.994;2023-06-26T11:58:59;2.63;;;2.20;;
2021;SDS011;1015;49.756;6.994;2023-06-26T12:01:29;3.40;;;2.10;;
2021;SDS011;1015;49.756;6.994;2023-06-26T12:03:58;4.10;;;2.00;;
2021;SDS011;1015;49.756;6.994;2023-06-26T12:06:26;2.83;;;1.90;;
2021;SDS011;1015;49.756;6.994;2023-06-26T12:08:54;3.30;;;2.03;;
2021;SDS011;1015;49.756;6.994;2023-06-26T12:11:21;4.10;;;1.90;;
2021;SDS011;1015;49.756;6.994;2023-06-26T12:13:50;4.03;;;2.10;;
2021;SDS011;1015;49.756;6.994;2023-06-26T12:16:18;2.67;;;1.87;;
2021;SDS011;1015;49.756;6.994;2023-06-26T12:18:46;3.47;;;1.90;;
2021;SDS011;1015;49.756;6.994;2023-06-26T12:21:44;2.50;;;1.63;;
2021;SDS011;1015;49.756;6.994;2023-06-26T12:24:13;2.47;;;1.60;;
2021;SDS011;1015;49.756;6.994;2023-06-26T12:26:41;2.63;;;1.87;;
2021;SDS011;1015;49.756;6.994;2023-06-26T12:29:10;2.87;;;1.97;;
2021;SDS011;1015;49.756;6.994;2023-06-26T12:31:40;2.00;;;1.70;;
2021;SDS011;1015;49.756;6.994;2023-06-26T12:34:08;2.83;;;2.03;;
2021;SDS011;1015;49.756;6.994;2023-06-26T12:36:40;2.73;;;2.10;;
2021;SDS011;1015;49.756;6.994;2023-06-26T12:39:09;2.90;;;1.90;;
2021;SDS011;1015;49.756;6.994;2023-06-26T12:41:43;3.30;;;1.60;;
2021;SDS011;1015;49.756;6.994;2023-06-26T12:44:16;3.03;;;1.93;;
2021;SDS011;1015;49.756;6.994;2023-06-26T12:46:44;2.50;;;1.90;;
2021;SDS011;1015;49.756;6.994;2023-06-26T12:49:12;2.77;;;1.70;;
2021;SDS011;1015;49.756;6.994;2023-06-26T12:51:40;2.63;;;1.97;;
2021;SDS011;1015;49.756;6.994;2023-06-26T12:54:08;3.53;;;1.93;;
2021;SDS011;1015;49.756;6.994;2023-06-26T12:56:35;3.63;;;1.57;;
2021;SDS011;1015;49.756;6.994;2023-06-26T12:59:02;3.47;;;1.50;;
2021;SDS011;1015;49.756;6.994;2023-06-26T13:01:29;4.00;;;1.77;;
2021;SDS011;1015;49.756;6.994;2023-06-26T13:03:59;2.40;;;1.40;;
2021;SDS011;1015;49.756;6.994;2023-06-26T13:06:26;2.00;;;1.53;;
2021;SDS011;1015;49.756;6.994;2023-06-26T13:08:54;2.47;;;1.27;;
2021;SDS011;1015;49.756;6.994;2023-06-26T13:11:21;3.13;;;1.80;;
2021;SDS011;1015;49.756;6.994;2023-06-26T13:13:48;4.17;;;1.83;;
2021;SDS011;1015;49.756;6.994;2023-06-26T13:16:16;2.37;;;1.53;;
2021;SDS011;1015;49.756;6.994;2023-06-26T13:18:44;6.47;;;2.07;;
2021;SDS011;1015;49.756;6.994;2023-06-26T13:21:13;2.30;;;1.57;;
2021;SDS011;1015;49.756;6.994;2023-06-26T13:23:41;2.03;;;1.67;;
2021;SDS011;1015;49.756;6.994;2023-06-26T13:26:08;3.77;;;1.70;;
2021;SDS011;1015;49.756;6.994;2023-06-26T13:28:36;2.83;;;1.47;;
2021;SDS011;1015;49.756;6.994;2023-06-26T13:31:03;3.30;;;1.60;;
2021;SDS011;1015;49.756;6.994;2023-06-26T13:33:31;4.03;;;1.70;;
2021;SDS011;1015;49.756;6.994;2023-06-26T13:35:58;2.87;;;1.70;;
2021;SDS011;1015;49.756;6.994;2023-06-26T13:38:27;2.13;;;1.63;;
2021;SDS011;1015;49.756;6.994;2023-06-26T13:40:55;2.70;;;1.90;;
2021;SDS011;1015;49.756;6.994;2023-06-26T13:43:23;2.57;;;1.60;;
2021;SDS011;1015;49.756;6.994;2023-06-26T13:45:50;1.70;;;1.50;;
2021;SDS011;1015;49.756;6.994;2023-06-26T13:48:17;2.80;;;1.60;;
2021;SDS011;1015;49.756;6.994;2023-06-26T13:50:44;3.40;;;1.90;;
2021;SDS011;1015;49.756;6.994;2023-06-26T13:53:12;1.80;;;1.50;;
2021;SDS011;1015;49.756;6.994;2023-06-26T13:55:41;2.27;;;1.63;;
2021;SDS011;1015;49.756;6.994;2023-06-26T13:58:08;2.53;;;1.73;;
2021;SDS011;1015;49.756;6.994;2023-06-26T14:00:36;2.13;;;1.60;;
2021;SDS011;1015;49.756;6.994;2023-06-26T14:03:04;4.23;;;1.47;;
2021;SDS011;1015;49.756;6.994;2023-06-26T14:05:31;3.97;;;2.33;;
2021;SDS011;1015;49.756;6.994;2023-06-26T14:07:59;3.13;;;1.60;;
2021;SDS011;1015;49.756;6.994;2023-06-26T14:10:26;6.17;;;2.27;;
2021;SDS011;1015;49.756;6.994;2023-06-26T14:12:55;3.70;;;1.40;;
2021;SDS011;1015;49.756;6.994;2023-06-26T14:15:22;3.00;;;2.00;;
2021;SDS011;1015;49.756;6.994;2023-06-26T14:17:50;2.70;;;1.70;;
2021;SDS011;1015;49.756;6.994;2023-06-26T14:20:17;2.60;;;1.80;;
2021;SDS011;1015;49.756;6.994;2023-06-26T14:22:45;2.30;;;1.50;;
2021;SDS011;1015;49.756;6.994;2023-06-26T14:25:13;4.93;;;1.70;;
2021;SDS011;1015;49.756;6.994;2023-06-26T14:27:40;4.07;;;1.50;;
2021;SDS011;1015;49.756;6.994;2023-06-26T14:30:09;3.33;;;1.90;;
2021;SDS011;1015;49.756;6.994;2023-06-26T14:32:37;3.23;;;2.10;;
2021;SDS011;1015;49.756;6.994;2023-06-26T14:35:04;1.97;;;1.60;;
2021;SDS011;1015;49.756;6.994;2023-06-26T14:37:32;3.70;;;1.80;;
2021;SDS011;1015;49.756;6.994;2023-06-26T14:39:59;2.90;;;1.53;;
2021;SDS011;1015;49.756;6.994;2023-06-26T14:42:26;2.57;;;1.37;;
2021;SDS011;1015;49.756;6.994;2023-06-26T14:44:54;1.90;;;1.50;;
2021;SDS011;1015;49.756;6.994;2023-06-26T14:47:22;2.20;;;2.00;;
2021;SDS011;1015;49.756;6.994;2023-06-26T14:49:50;3.30;;;1.80;;
2021;SDS011;1015;49.756;6.994;2023-06-26T14:52:17;5.23;;;1.97;;
2021;SDS011;1015;49.756;6.994;2023-06-26T14:54:44;2.10;;;1.73;;
2021;SDS011;1015;49.756;6.994;2023-06-26T14:57:11;2.80;;;1.40;;
2021;SDS011;1015;49.756;6.994;2023-06-26T14:59:39;2.43;;;1.63;;
2021;SDS011;1015;49.756;6.994;2023-06-26T15:02:06;2.97;;;1.60;;
2021;SDS011;1015;49.756;6.994;2023-06-26T15:04:35;2.40;;;2.10;;
2021;SDS011;1015;49.756;6.994;2023-06-26T15:07:02;6.30;;;2.20;;
2021;SDS011;1015;49.756;6.994;2023-06-26T15:09:29;6.60;;;2.37;;
2021;SDS011;1015;49.756;6.994;2023-06-26T15:11:57;1.77;;;1.60;;
2021;SDS011;1015;49.756;6.994;2023-06-26T15:14:24;2.13;;;1.70;;
2021;SDS011;1015;49.756;6.994;2023-06-26T15:16:51;4.70;;;2.00;;
2021;SDS011;1015;49.756;6.994;2023-06-26T15:19:19;5.37;;;1.60;;
2021;SDS011;1015;49.756;6.994;2023-06-26T15:21:47;3.70;;;1.67;;
2021;SDS011;1015;49.756;6.994;2023-06-26T15:24:15;3.70;;;1.60;;
2021;SDS011;1015;49.756;6.994;2023-06-26T15:26:42;2.40;;;1.70;;